首页
METAR-TAF:

METAR-TAF

机场 :

马德里, 西班牙

阿道弗·苏亚雷斯马德里-巴拉哈斯机场

纬度: 40-27N, 经度: 003-33W, 海拔: 609米

当前天气观测

该预报发布于21分钟前的22:00 UTC
风速4节,风向
温度 20°C
湿度 40%
气压 1019 hPa
能见度10公里或以上
1500米以下无云,无积雨云

METAR: LEMD 252200Z 19004KT CAVOK 20/06 Q1019 NOSIG

时间: 00:21 (22:21 UTC)

预报

该预报发布于3小时和46分钟前的18:35 UTC
预报有效从25日的 18点(UTC)到 26日的 24点(UTC)
风速7节,风向东北
能见度10公里或以上
1500米以下无云,无积雨云
短暂存在
从 25日的 18点(UTC)到 25日的 22点(UTC)
风速10节,风向东南
短暂存在
从 25日的 18点(UTC)到 25日的 20点(UTC)
少量云层高于4500英尺, 塔状积云.
几率 30%
从 25日的 18点(UTC)到 25日的 19点(UTC)
散云层高于3500英尺, 积雨云.
雷暴, 阵雨

TAF: LEMD 251835Z 2518/2624 05007KT CAVOK TX26/2615Z TN10/2606Z TEMPO 2518/2522 13010KT TEMPO 2518/2520 FEW045TCU PROB30 2518/2519 TS SHRA SCT035CB

超过4000个机场的气象观测和天气预报(METAR&TAF报告)。

可查询的气象台以黄色和红色小点在地图上表示。

将鼠标移到小点上方,可查看气象台名称。

然后点击查看天气观测和预报。

如需切换地图:点击带黑十字的绿色按钮放大地图;点击带横线的绿色按钮缩小地图;或者点击绿色箭头查看邻近地区的地图。


METAR-TAF: